createdAt,value
2023-04-21T00:00:30.836Z,0.20
2023-04-21T00:01:30.821Z,0.20
2023-04-21T00:02:30.993Z,0.20
2023-04-21T00:03:30.975Z,0.20
2023-04-21T00:04:30.993Z,0.30
2023-04-21T00:05:30.929Z,0.30
2023-04-21T00:06:30.761Z,0.40
2023-04-21T00:07:30.745Z,0.30
2023-04-21T00:08:30.737Z,0.30
2023-04-21T00:09:30.747Z,0.20
2023-04-21T00:10:30.705Z,0.30
2023-04-21T00:11:30.700Z,0.20
2023-04-21T00:12:30.678Z,0.30
2023-04-21T00:13:30.667Z,0.20
2023-04-21T00:14:30.649Z,0.30
2023-04-21T00:15:30.652Z,0.20
2023-04-21T00:16:30.796Z,0.20
2023-04-21T00:17:30.647Z,0.20
2023-04-21T00:18:30.601Z,0.20
2023-04-21T00:19:30.594Z,0.20
2023-04-21T00:20:30.580Z,0.20
2023-04-21T00:21:30.564Z,0.20
2023-04-21T00:22:30.549Z,0.20
2023-04-21T00:23:30.541Z,0.30
2023-04-21T00:24:30.521Z,0.20
2023-04-21T00:25:30.536Z,0.20
2023-04-21T00:26:30.502Z,0.20
2023-04-21T00:27:30.485Z,0.20
2023-04-21T00:28:30.531Z,0.20
2023-04-21T00:29:30.461Z,0.20
2023-04-21T00:30:30.488Z,0.20
2023-04-21T00:31:30.479Z,0.30
2023-04-21T00:32:30.486Z,0.30
2023-04-21T00:33:30.411Z,0.20
2023-04-21T00:34:30.395Z,0.20
2023-04-21T00:35:30.392Z,0.20
2023-04-21T00:36:30.372Z,0.20
2023-04-21T00:37:30.380Z,0.20
2023-04-21T00:38:30.354Z,0.20
2023-04-21T00:39:30.332Z,0.20
2023-04-21T00:40:30.320Z,0.20
2023-04-21T00:41:30.331Z,0.30
2023-04-21T00:42:30.288Z,0.30
2023-04-21T00:43:30.281Z,0.20
2023-04-21T00:44:30.267Z,0.30
2023-04-21T00:45:30.265Z,0.20
2023-04-21T00:46:30.269Z,0.30
2023-04-21T00:47:30.252Z,0.20
2023-04-21T00:48:30.215Z,0.20
2023-04-21T00:49:30.205Z,0.20
2023-04-21T00:50:30.193Z,0.20
2023-04-21T00:51:30.187Z,0.20
2023-04-21T00:52:30.163Z,0.30
2023-04-21T00:53:30.148Z,0.20
2023-04-21T00:54:30.143Z,0.20
2023-04-21T00:55:30.121Z,0.10
2023-04-21T00:56:30.122Z,0.20
2023-04-21T00:57:30.168Z,0.20
2023-04-21T00:58:30.091Z,0.20
2023-04-21T00:59:30.092Z,0.30
2023-04-21T01:00:30.134Z,0.30
2023-04-21T01:01:30.382Z,0.20
2023-04-21T01:02:30.168Z,0.20
2023-04-21T01:03:30.272Z,0.20
2023-04-21T01:04:30.010Z,0.30
2023-04-21T01:05:29.999Z,0.20
2023-04-21T01:06:29.996Z,0.20
2023-04-21T01:07:29.972Z,0.20
2023-04-21T01:08:29.961Z,0.20
2023-04-21T01:09:29.949Z,0.20
2023-04-21T01:10:29.938Z,0.20
2023-04-21T01:11:29.922Z,0.30
2023-04-21T01:12:29.913Z,0.20
2023-04-21T01:13:29.923Z,0.30
2023-04-21T01:14:29.892Z,0.20
2023-04-21T01:15:29.873Z,0.30
2023-04-21T01:16:29.957Z,0.20
2023-04-21T01:17:29.870Z,0.20
2023-04-21T01:18:29.836Z,0.20
2023-04-21T01:19:29.817Z,0.20
2023-04-21T01:20:29.816Z,0.20
2023-04-21T01:21:29.796Z,0.30
2023-04-21T01:22:29.784Z,0.20
2023-04-21T01:23:29.770Z,0.30
2023-04-21T01:24:29.761Z,0.20
2023-04-21T01:25:29.753Z,0.30
2023-04-21T01:26:29.733Z,0.20
2023-04-21T01:27:29.727Z,0.20
2023-04-21T01:28:29.710Z,0.20
2023-04-21T01:29:29.718Z,0.30
2023-04-21T01:30:29.684Z,0.20
2023-04-21T01:31:29.685Z,0.20
2023-04-21T01:32:29.883Z,0.20
2023-04-21T01:33:29.647Z,0.30
2023-04-21T01:34:29.632Z,0.20
2023-04-21T01:35:29.617Z,0.30
2023-04-21T01:36:29.621Z,0.20
2023-04-21T01:37:29.622Z,0.30
2023-04-21T01:38:29.582Z,0.20
2023-04-21T01:39:29.567Z,0.30
2023-04-21T01:40:29.559Z,0.20
2023-04-21T01:41:29.545Z,0.20
2023-04-21T01:42:29.564Z,0.20
2023-04-21T01:43:29.519Z,0.20
2023-04-21T01:44:29.524Z,0.20
2023-04-21T01:45:29.523Z,0.30
2023-04-21T01:46:29.538Z,0.20
2023-04-21T01:47:29.489Z,0.30
2023-04-21T01:48:29.465Z,0.20
2023-04-21T01:49:29.442Z,0.30
2023-04-21T01:50:29.458Z,0.20
2023-04-21T01:51:29.416Z,0.30
2023-04-21T01:52:29.407Z,0.20
2023-04-21T01:53:29.391Z,0.20
2023-04-21T01:54:29.380Z,0.20
2023-04-21T01:55:29.383Z,0.20
2023-04-21T01:56:29.422Z,0.20
2023-04-21T01:57:29.352Z,0.20
2023-04-21T01:58:29.327Z,0.20
2023-04-21T01:59:29.315Z,0.20
2023-04-21T02:00:29.305Z,0.20
2023-04-21T02:01:29.337Z,0.30
2023-04-21T02:02:29.370Z,0.20
2023-04-21T02:03:29.541Z,0.20
2023-04-21T02:04:29.359Z,0.20
2023-04-21T02:05:29.253Z,0.20
2023-04-21T02:06:29.242Z,0.20
2023-04-21T02:07:29.213Z,0.20
2023-04-21T02:08:29.204Z,0.20
2023-04-21T02:09:29.193Z,0.20
2023-04-21T02:10:29.177Z,0.20
2023-04-21T02:11:29.178Z,0.20
2023-04-21T02:12:29.155Z,0.30
2023-04-21T02:14:29.123Z,0.20
2023-04-21T02:15:29.141Z,0.20
2023-04-21T02:16:29.135Z,0.20
2023-04-21T02:17:29.168Z,0.20
2023-04-21T02:18:29.073Z,0.30
2023-04-21T02:19:29.068Z,0.20
2023-04-21T02:20:29.056Z,0.30
2023-04-21T02:21:29.036Z,0.20
2023-04-21T02:22:29.024Z,0.30
2023-04-21T02:23:29.008Z,0.20
2023-04-21T02:24:29.000Z,0.20
2023-04-21T02:25:28.983Z,0.20
2023-04-21T02:26:28.971Z,0.20
2023-04-21T02:27:28.956Z,0.20
2023-04-21T02:28:28.946Z,0.30
2023-04-21T02:29:28.932Z,0.20
2023-04-21T02:30:28.922Z,0.20
2023-04-21T02:31:28.963Z,0.30
2023-04-21T02:32:28.996Z,0.30
2023-04-21T02:33:28.937Z,0.20
2023-04-21T02:34:28.894Z,0.20
2023-04-21T02:35:28.852Z,0.20
2023-04-21T02:36:28.838Z,0.20
2023-04-21T02:37:28.826Z,0.20
2023-04-21T02:38:28.814Z,0.20
2023-04-21T02:39:28.817Z,0.30
2023-04-21T02:40:28.791Z,0.20
2023-04-21T02:41:28.775Z,0.20
2023-04-21T02:42:28.768Z,0.10
2023-04-21T02:43:28.751Z,0.20
2023-04-21T02:44:28.742Z,0.20
2023-04-21T02:45:28.733Z,0.20
2023-04-21T02:46:28.743Z,0.20
2023-04-21T02:47:28.716Z,0.20
2023-04-21T02:48:28.686Z,0.20
2023-04-21T02:49:28.705Z,0.20
2023-04-21T02:50:28.666Z,0.20
2023-04-21T02:51:28.653Z,0.20
2023-04-21T02:52:28.635Z,0.20
2023-04-21T02:53:28.630Z,0.20
2023-04-21T02:54:28.609Z,0.20
2023-04-21T02:55:28.593Z,0.20
2023-04-21T02:56:28.580Z,0.20
2023-04-21T02:57:28.569Z,0.10
2023-04-21T02:58:28.555Z,0.20
2023-04-21T02:59:28.542Z,0.10
2023-04-21T03:00:28.574Z,0.20
2023-04-21T03:01:28.522Z,0.10
2023-04-21T03:02:28.729Z,0.20
2023-04-21T03:03:28.651Z,0.20
2023-04-21T03:04:28.783Z,0.20
2023-04-21T03:05:28.484Z,0.20
2023-04-21T03:06:28.453Z,0.20
2023-04-21T03:07:28.439Z,0.20
2023-04-21T03:08:28.431Z,0.20
2023-04-21T03:09:28.411Z,0.20
2023-04-21T03:10:28.403Z,0.20
2023-04-21T03:11:28.387Z,0.20
2023-04-21T03:12:28.376Z,0.20
2023-04-21T03:13:28.362Z,0.20
2023-04-21T03:14:28.354Z,0.20
2023-04-21T03:15:28.336Z,0.20
2023-04-21T03:16:28.367Z,0.20
2023-04-21T03:17:30.345Z,0.20
2023-04-21T03:18:28.296Z,0.20
2023-04-21T03:19:28.293Z,0.20
2023-04-21T03:20:28.281Z,0.20
2023-04-21T03:21:28.287Z,0.20
2023-04-21T03:22:28.252Z,0.20
2023-04-21T03:23:28.235Z,0.20
2023-04-21T03:24:28.222Z,0.20
2023-04-21T03:25:28.211Z,0.20
2023-04-21T03:26:28.198Z,0.20
2023-04-21T03:27:28.183Z,0.20
2023-04-21T03:28:28.171Z,0.20
2023-04-21T03:29:28.162Z,0.20
2023-04-21T03:30:28.147Z,0.20
2023-04-21T03:31:28.173Z,0.20
2023-04-21T03:32:28.190Z,0.20
2023-04-21T03:33:28.104Z,0.20
2023-04-21T03:34:28.100Z,0.20
2023-04-21T03:35:28.080Z,0.20
2023-04-21T03:36:28.083Z,0.20
2023-04-21T03:37:28.200Z,0.20
2023-04-21T03:38:28.045Z,0.20
2023-04-21T03:39:28.029Z,0.30
2023-04-21T03:40:28.018Z,0.20
2023-04-21T03:41:28.004Z,0.30
2023-04-21T03:42:27.992Z,0.20
2023-04-21T03:43:27.981Z,0.30
2023-04-21T03:44:27.974Z,0.20
2023-04-21T03:45:27.956Z,0.30
2023-04-21T03:46:27.974Z,0.20
2023-04-21T03:47:27.966Z,0.20
2023-04-21T03:48:27.925Z,0.10
2023-04-21T03:49:27.905Z,0.20
2023-04-21T03:50:27.894Z,0.20
2023-04-21T03:51:27.874Z,0.20
2023-04-21T03:52:27.867Z,0.20
2023-04-21T03:53:27.876Z,0.20
2023-04-21T03:54:27.842Z,0.30
2023-04-21T03:55:27.832Z,0.20
2023-04-21T03:56:27.832Z,0.20
2023-04-21T03:57:27.801Z,0.20
2023-04-21T03:58:27.786Z,0.30
2023-04-21T03:59:27.770Z,0.30
2023-04-21T04:00:27.759Z,0.20
2023-04-21T04:01:27.743Z,0.20
2023-04-21T04:02:27.901Z,0.20
2023-04-21T04:03:27.871Z,0.20
2023-04-21T04:04:27.860Z,0.30
2023-04-21T04:05:27.750Z,0.30
2023-04-21T04:06:27.698Z,0.30
2023-04-21T04:07:27.667Z,0.30
2023-04-21T04:08:27.658Z,0.20
2023-04-21T04:09:27.674Z,0.30
2023-04-21T04:10:27.630Z,0.20
2023-04-21T04:11:27.622Z,0.20
2023-04-21T04:12:27.607Z,0.20
2023-04-21T04:13:27.591Z,0.20
2023-04-21T04:14:27.576Z,0.20
2023-04-21T04:15:27.568Z,0.30
2023-04-21T04:16:27.650Z,0.20
2023-04-21T04:17:27.573Z,0.30
2023-04-21T04:18:27.528Z,0.30
2023-04-21T04:19:27.528Z,0.20
2023-04-21T04:20:27.504Z,0.30
2023-04-21T04:21:27.494Z,0.20
2023-04-21T04:22:27.475Z,0.30
2023-04-21T04:23:27.467Z,0.30
2023-04-21T04:24:27.451Z,0.30
2023-04-21T04:25:27.459Z,0.30
2023-04-21T04:26:27.424Z,0.30
2023-04-21T04:27:27.408Z,0.30
2023-04-21T04:28:27.397Z,0.20
2023-04-21T04:29:27.381Z,82.30
2023-04-21T04:30:27.370Z,0.80
2023-04-21T04:31:27.418Z,0.80
2023-04-21T04:32:27.359Z,0.70
2023-04-21T04:33:27.330Z,0.70
2023-04-21T04:34:27.317Z,0.90
2023-04-21T04:35:27.318Z,0.80
2023-04-21T04:36:27.295Z,0.90
2023-04-21T04:37:27.281Z,0.70
2023-04-21T04:38:27.265Z,0.80
2023-04-21T04:39:27.253Z,8.80
2023-04-21T04:40:27.247Z,34.09
2023-04-21T04:41:27.250Z,0.70
2023-04-21T04:42:27.213Z,0.60
2023-04-21T04:43:27.224Z,0.70
2023-04-21T04:44:27.186Z,0.70
2023-04-21T04:45:27.177Z,0.80
2023-04-21T04:46:27.209Z,0.70
2023-04-21T04:47:27.192Z,0.70
2023-04-21T04:48:27.136Z,0.70
2023-04-21T04:49:27.121Z,0.80
2023-04-21T04:50:27.108Z,40.29
2023-04-21T04:51:27.096Z,15.80
2023-04-21T04:52:27.099Z,0.70
2023-04-21T04:53:27.069Z,0.80
2023-04-21T04:54:27.060Z,0.80
2023-04-21T04:55:27.043Z,0.60
2023-04-21T04:56:27.041Z,0.80
2023-04-21T04:57:27.036Z,0.60
2023-04-21T04:58:27.009Z,0.80
2023-04-21T04:59:29.024Z,0.70
2023-04-21T05:00:26.980Z,0.70
2023-04-21T05:01:26.988Z,40.79
2023-04-21T05:02:27.227Z,0.70
2023-04-21T05:03:27.039Z,0.60
2023-04-21T05:04:27.617Z,0.70
2023-04-21T05:05:26.917Z,0.80
2023-04-21T05:06:26.903Z,0.60
2023-04-21T05:07:26.901Z,0.70
2023-04-21T05:08:26.877Z,0.70
2023-04-21T05:09:26.867Z,0.80
2023-04-21T05:10:26.850Z,0.70
2023-04-21T05:11:26.844Z,11.10
2023-04-21T05:12:26.825Z,85.90
2023-04-21T05:13:26.837Z,80.40
2023-04-21T05:14:26.800Z,84.90
2023-04-21T05:15:26.797Z,88.50
2023-04-21T05:16:26.841Z,89.19
2023-04-21T05:17:26.779Z,88.40
2023-04-21T05:18:26.747Z,88.30
2023-04-21T05:19:26.735Z,88.30
2023-04-21T05:20:26.721Z,87.09
2023-04-21T05:21:26.710Z,86.80
2023-04-21T05:22:26.697Z,88.80
2023-04-21T05:23:26.687Z,87.90
2023-04-21T05:24:26.671Z,86.80
2023-04-21T05:25:26.664Z,87.30
2023-04-21T05:26:26.645Z,87.30
2023-04-21T05:27:26.640Z,89.40
2023-04-21T05:28:26.620Z,89.00
2023-04-21T05:29:26.635Z,88.19
2023-04-21T05:30:26.603Z,87.69
2023-04-21T05:31:26.641Z,86.69
2023-04-21T05:32:26.728Z,88.59
2023-04-21T05:33:26.568Z,88.19
2023-04-21T05:34:26.538Z,88.50
2023-04-21T05:35:26.541Z,86.90
2023-04-21T05:36:26.516Z,88.69
2023-04-21T05:37:26.504Z,88.00
2023-04-21T05:38:26.493Z,89.19
2023-04-21T05:39:26.494Z,86.19
2023-04-21T05:40:26.462Z,86.80
2023-04-21T05:41:26.452Z,85.30
2023-04-21T05:42:26.438Z,84.40
2023-04-21T05:43:26.438Z,84.19
2023-04-21T05:44:26.417Z,84.50
2023-04-21T05:45:26.434Z,82.50
2023-04-21T05:46:26.439Z,83.40
2023-04-21T05:47:26.495Z,83.19
2023-04-21T05:48:26.362Z,80.90
2023-04-21T05:49:26.347Z,81.40
2023-04-21T05:50:26.353Z,79.80
2023-04-21T05:51:26.329Z,79.40
2023-04-21T05:52:26.310Z,78.90
2023-04-21T05:53:26.296Z,77.40
2023-04-21T05:54:26.294Z,77.19
2023-04-21T05:55:26.284Z,76.40
2023-04-21T05:56:26.275Z,75.80
2023-04-21T05:57:26.249Z,72.50
2023-04-21T05:59:26.265Z,73.59
2023-04-21T06:00:26.219Z,73.50
2023-04-21T06:01:26.218Z,73.30
2023-04-21T06:02:26.258Z,72.50
2023-04-21T06:03:26.281Z,74.19
2023-04-21T06:04:26.856Z,75.30
2023-04-21T06:05:26.181Z,73.19
2023-04-21T06:06:26.128Z,73.90
2023-04-21T06:07:26.116Z,71.00
2023-04-21T06:08:26.121Z,70.30
2023-04-21T06:09:26.099Z,72.00
2023-04-21T06:10:26.075Z,69.59
2023-04-21T06:11:26.063Z,71.09
2023-04-21T06:12:26.059Z,70.69
2023-04-21T06:13:26.039Z,68.00
2023-04-21T06:14:26.028Z,69.09
2023-04-21T06:15:26.041Z,67.80
2023-04-21T06:16:26.025Z,66.90
2023-04-21T06:17:26.067Z,68.30
2023-04-21T06:18:25.973Z,69.90
2023-04-21T06:19:26.114Z,68.59
2023-04-21T06:20:25.951Z,67.90
2023-04-21T06:21:25.952Z,68.50
2023-04-21T06:22:25.927Z,66.69
2023-04-21T06:23:25.908Z,67.90
2023-04-21T06:24:26.029Z,66.30
2023-04-21T06:25:25.886Z,67.19
2023-04-21T06:26:25.869Z,66.80
2023-04-21T06:27:25.860Z,66.69
2023-04-21T06:28:25.851Z,66.50
2023-04-21T06:29:25.834Z,65.90
2023-04-21T06:30:25.816Z,65.09
2023-04-21T06:31:25.876Z,65.59
2023-04-21T06:32:25.864Z,67.30
2023-04-21T06:33:25.807Z,66.30
2023-04-21T06:34:25.769Z,69.09
2023-04-21T06:35:25.759Z,65.19
2023-04-21T06:36:25.746Z,65.69
2023-04-21T06:37:25.732Z,66.80
2023-04-21T06:38:25.725Z,67.40
2023-04-21T06:39:25.720Z,66.69
2023-04-21T06:40:25.696Z,67.19
2023-04-21T06:41:25.683Z,69.90
2023-04-21T06:42:25.692Z,73.00
2023-04-21T06:43:25.657Z,75.30
2023-04-21T06:44:25.651Z,77.50
2023-04-21T06:45:25.644Z,85.40
2023-04-21T06:46:25.667Z,82.59
2023-04-21T06:47:25.942Z,86.59
2023-04-21T06:48:25.593Z,79.80
2023-04-21T06:49:25.616Z,74.69
2023-04-21T06:50:25.577Z,73.59
2023-04-21T06:51:25.560Z,73.69
2023-04-21T06:52:25.547Z,73.80
2023-04-21T06:53:25.534Z,73.19
2023-04-21T06:54:25.518Z,73.19
2023-04-21T06:55:25.502Z,73.59
2023-04-21T06:56:25.488Z,73.00
2023-04-21T06:57:25.479Z,73.30
2023-04-21T06:58:25.457Z,73.40
2023-04-21T06:59:25.462Z,73.50
2023-04-21T07:00:25.449Z,73.59
2023-04-21T07:01:25.522Z,76.40
2023-04-21T07:02:25.465Z,76.30
2023-04-21T07:03:25.538Z,74.59
2023-04-21T07:04:25.430Z,86.80
2023-04-21T07:05:25.396Z,141.69
2023-04-21T07:06:25.359Z,137.19
2023-04-21T07:07:25.345Z,130.69
2023-04-21T07:08:25.400Z,144.39
2023-04-21T07:09:25.323Z,152.80
2023-04-21T07:10:25.308Z,149.50
2023-04-21T07:11:25.299Z,147.39
2023-04-21T07:12:25.288Z,162.10
2023-04-21T07:13:25.290Z,149.89
2023-04-21T07:14:25.254Z,145.60
2023-04-21T07:15:25.265Z,147.89
2023-04-21T07:16:25.252Z,151.39
2023-04-21T07:17:25.257Z,142.39
2023-04-21T07:18:25.215Z,150.19
2023-04-21T07:19:25.191Z,148.19
2023-04-21T07:20:25.173Z,149.39
2023-04-21T07:21:25.188Z,144.80
2023-04-21T07:22:25.151Z,148.10
2023-04-21T07:23:25.138Z,151.39
2023-04-21T07:24:25.128Z,152.00
2023-04-21T07:25:25.120Z,153.00
2023-04-21T07:26:25.103Z,156.30
2023-04-21T07:27:25.090Z,154.60
2023-04-21T07:28:25.072Z,156.69
2023-04-21T07:29:25.073Z,153.39
2023-04-21T07:30:25.053Z,140.50
2023-04-21T07:31:25.069Z,133.30
2023-04-21T07:32:25.050Z,144.69
2023-04-21T07:33:25.008Z,142.30
2023-04-21T07:34:25.005Z,139.10
2023-04-21T07:35:24.987Z,147.10
2023-04-21T07:36:24.979Z,154.30
2023-04-21T07:37:25.080Z,155.69
2023-04-21T07:38:24.947Z,153.39
2023-04-21T07:39:24.944Z,155.69
2023-04-21T07:40:24.921Z,160.30
2023-04-21T07:41:24.917Z,156.30
2023-04-21T07:42:24.891Z,157.50
2023-04-21T07:43:24.879Z,150.10
2023-04-21T07:44:24.874Z,154.69
2023-04-21T07:45:25.138Z,149.60
2023-04-21T07:46:24.886Z,152.50
2023-04-21T07:47:24.896Z,152.50
2023-04-21T07:48:24.812Z,148.00
2023-04-21T07:49:24.800Z,151.00
2023-04-21T07:50:24.812Z,147.50
2023-04-21T07:51:24.781Z,151.00
2023-04-21T07:52:24.807Z,155.30
2023-04-21T07:53:24.782Z,157.69
2023-04-21T07:54:24.738Z,149.50
2023-04-21T07:55:24.723Z,148.30
2023-04-21T07:56:24.716Z,139.50
2023-04-21T07:57:24.696Z,145.60
2023-04-21T07:58:24.694Z,143.69
2023-04-21T07:59:24.677Z,147.89
2023-04-21T08:00:24.750Z,138.19
2023-04-21T08:01:24.644Z,148.69
2023-04-21T08:02:24.737Z,142.89
2023-04-21T08:03:25.016Z,138.19
2023-04-21T08:04:25.157Z,136.30
2023-04-21T08:05:27.381Z,141.69
2023-04-21T08:06:24.688Z,146.89
2023-04-21T08:07:24.573Z,139.89
2023-04-21T08:08:24.551Z,144.10
2023-04-21T08:09:24.570Z,160.80
2023-04-21T08:10:24.719Z,155.30
2023-04-21T08:11:24.512Z,151.19
2023-04-21T08:12:24.528Z,153.19
2023-04-21T08:13:24.488Z,146.10
2023-04-21T08:14:24.481Z,120.09
2023-04-21T08:15:24.470Z,135.30
2023-04-21T08:16:24.523Z,155.39
2023-04-21T08:17:24.538Z,149.30
2023-04-21T08:18:24.468Z,145.30
2023-04-21T08:19:24.417Z,128.50
2023-04-21T08:20:24.543Z,131.50
2023-04-21T08:21:24.420Z,147.30
2023-04-21T08:22:24.808Z,132.30
2023-04-21T08:23:24.378Z,147.50
2023-04-21T08:24:24.347Z,132.00
2023-04-21T08:25:24.356Z,145.69
2023-04-21T08:26:24.318Z,135.69
2023-04-21T08:27:24.329Z,140.80
2023-04-21T08:28:24.306Z,142.89
2023-04-21T08:29:24.279Z,143.39
2023-04-21T08:30:24.559Z,139.00
2023-04-21T08:31:24.305Z,146.80
2023-04-21T08:32:24.599Z,143.80
2023-04-21T08:33:24.228Z,141.39
2023-04-21T08:34:27.185Z,143.50
2023-04-21T08:35:24.209Z,146.50
2023-04-21T08:36:29.431Z,145.69
2023-04-21T08:37:24.182Z,145.10
2023-04-21T08:38:24.175Z,143.60
2023-04-21T08:39:24.150Z,139.50
2023-04-21T08:40:24.140Z,141.60
2023-04-21T08:41:24.146Z,142.30
2023-04-21T08:42:24.108Z,145.10
2023-04-21T08:43:24.099Z,145.69
2023-04-21T08:44:24.094Z,146.10
2023-04-21T08:45:24.122Z,152.89
2023-04-21T08:46:24.207Z,155.89
2023-04-21T08:47:24.080Z,145.60
2023-04-21T08:48:24.045Z,140.39
2023-04-21T08:49:24.021Z,141.50
2023-04-21T08:50:24.007Z,138.60
2023-04-21T08:51:24.393Z,138.60
2023-04-21T08:52:23.982Z,141.10
2023-04-21T08:53:23.975Z,116.50
2023-04-21T08:54:23.963Z,132.60
2023-04-21T08:55:23.942Z,138.50
2023-04-21T08:56:23.938Z,144.30
2023-04-21T08:57:23.940Z,159.10
2023-04-21T08:58:23.901Z,142.69
2023-04-21T08:59:23.890Z,144.89
2023-04-21T09:00:23.877Z,162.69
2023-04-21T09:01:23.913Z,155.00
2023-04-21T09:02:23.986Z,142.39
2023-04-21T09:03:26.312Z,133.60
2023-04-21T09:04:24.016Z,159.69
2023-04-21T09:05:24.194Z,158.10
2023-04-21T09:06:24.169Z,171.80
2023-04-21T09:07:23.784Z,169.80
2023-04-21T09:08:23.771Z,155.50
2023-04-21T09:09:23.759Z,154.69
2023-04-21T09:10:23.748Z,155.69
2023-04-21T09:11:23.736Z,150.89
2023-04-21T09:12:23.722Z,148.69
2023-04-21T09:13:23.729Z,146.50
2023-04-21T09:14:23.689Z,153.10
2023-04-21T09:15:23.676Z,157.69
2023-04-21T09:16:23.740Z,162.30
2023-04-21T09:17:23.722Z,164.89
2023-04-21T09:18:23.648Z,165.89
2023-04-21T09:19:23.626Z,169.39
2023-04-21T09:20:23.611Z,165.80
2023-04-21T09:21:23.600Z,148.89
2023-04-21T09:22:23.584Z,160.89
2023-04-21T09:23:23.573Z,150.60
2023-04-21T09:24:23.568Z,159.10
2023-04-21T09:25:23.558Z,154.30
2023-04-21T09:26:23.548Z,164.39
2023-04-21T09:27:23.532Z,172.39
2023-04-21T09:28:23.510Z,158.19
2023-04-21T09:29:23.706Z,136.50
2023-04-21T09:30:23.484Z,131.60
2023-04-21T09:31:23.509Z,112.90
2023-04-21T09:32:23.478Z,104.69
2023-04-21T09:33:30.627Z,107.90
2023-04-21T09:34:25.434Z,95.90
2023-04-21T09:35:23.418Z,106.69
2023-04-21T09:36:23.409Z,94.30
2023-04-21T09:37:23.398Z,105.09
2023-04-21T09:38:23.408Z,104.69
2023-04-21T09:39:38.365Z,95.40
2023-04-21T09:40:25.352Z,93.59
2023-04-21T09:41:23.342Z,99.59
2023-04-21T09:42:23.328Z,108.09
2023-04-21T09:43:23.315Z,98.00
2023-04-21T09:44:23.793Z,109.90
2023-04-21T09:45:39.085Z,102.19
2023-04-21T09:46:25.306Z,97.19
2023-04-21T09:47:23.316Z,92.69
2023-04-21T09:48:23.261Z,92.50
2023-04-21T09:49:23.244Z,93.90
2023-04-21T09:50:54.311Z,89.00
2023-04-21T09:51:32.645Z,99.80
2023-04-21T09:52:25.203Z,85.69
2023-04-21T09:53:23.193Z,87.09
2023-04-21T09:55:23.164Z,91.09
2023-04-21T09:56:23.154Z,84.90
2023-04-21T09:57:23.145Z,81.69
2023-04-21T09:58:23.154Z,96.00
2023-04-21T09:59:23.785Z,90.59
2023-04-21T10:00:23.101Z,88.80
2023-04-21T10:01:23.172Z,85.00
2023-04-21T10:02:23.347Z,93.90
2023-04-21T10:03:23.198Z,94.90
2023-04-21T10:04:24.020Z,94.90
2023-04-21T10:05:23.087Z,86.69
2023-04-21T10:06:23.028Z,82.80
2023-04-21T10:07:23.012Z,94.19
2023-04-21T10:08:23.006Z,82.19
2023-04-21T10:09:22.986Z,83.80
2023-04-21T10:10:22.986Z,81.00
2023-04-21T10:11:22.964Z,82.90
2023-04-21T10:12:22.969Z,78.80
2023-04-21T10:13:22.939Z,83.00
2023-04-21T10:15:22.921Z,86.69
2023-04-21T10:16:22.960Z,78.90
2023-04-21T10:17:22.941Z,86.30
2023-04-21T10:18:22.885Z,86.40
2023-04-21T10:19:22.868Z,93.30
2023-04-21T10:20:22.855Z,88.50
2023-04-21T10:21:22.840Z,90.90
2023-04-21T10:22:22.829Z,84.19
2023-04-21T10:23:22.817Z,84.19
2023-04-21T10:24:22.805Z,89.30
2023-04-21T10:25:22.804Z,80.90
2023-04-21T10:26:22.778Z,78.69
2023-04-21T10:27:22.767Z,77.50
2023-04-21T10:28:22.768Z,75.30
2023-04-21T10:29:22.752Z,81.09
2023-04-21T10:30:22.852Z,77.90
2023-04-21T10:31:22.740Z,84.50
2023-04-21T10:32:22.745Z,85.50
2023-04-21T10:33:22.715Z,87.00
2023-04-21T10:34:22.972Z,85.50
2023-04-21T10:35:22.723Z,91.00
2023-04-21T10:36:22.656Z,87.00
2023-04-21T10:37:22.641Z,88.50
2023-04-21T10:38:22.633Z,72.00
2023-04-21T10:39:22.616Z,67.90
2023-04-21T10:40:30.162Z,69.50
2023-04-21T10:41:22.583Z,75.90
2023-04-21T10:42:22.574Z,67.90
2023-04-21T10:43:22.562Z,71.00
2023-04-21T10:44:22.710Z,60.70
2023-04-21T10:45:22.538Z,67.69
2023-04-21T10:46:22.543Z,66.90
2023-04-21T10:47:22.537Z,71.50
2023-04-21T10:48:22.502Z,69.59
2023-04-21T10:49:22.510Z,62.70
2023-04-21T10:50:22.490Z,62.90
2023-04-21T10:51:22.464Z,79.19
2023-04-21T10:52:22.452Z,77.90
2023-04-21T10:53:22.435Z,62.09
2023-04-21T10:54:22.542Z,68.30
2023-04-21T10:55:22.416Z,63.79
2023-04-21T10:56:22.399Z,70.80
2023-04-21T10:57:22.394Z,67.69
2023-04-21T10:58:22.379Z,71.80
2023-04-21T10:59:22.364Z,74.30
2023-04-21T11:00:22.347Z,72.09
2023-04-21T11:01:22.386Z,72.19
2023-04-21T11:02:22.724Z,68.09
2023-04-21T11:03:22.554Z,59.70
2023-04-21T11:04:23.476Z,61.59
2023-04-21T11:05:22.309Z,70.90
2023-04-21T11:06:22.276Z,65.40
2023-04-21T11:07:22.258Z,82.80
2023-04-21T11:08:22.250Z,77.59
2023-04-21T11:09:22.237Z,85.09
2023-04-21T11:10:22.221Z,75.59
2023-04-21T11:11:22.206Z,75.59
2023-04-21T11:12:22.202Z,67.19
2023-04-21T11:13:22.194Z,77.19
2023-04-21T11:14:22.249Z,58.70
2023-04-21T11:15:22.161Z,54.09
2023-04-21T11:16:22.161Z,60.70
2023-04-21T11:17:22.156Z,58.59
2023-04-21T11:18:22.116Z,59.20
2023-04-21T11:19:22.102Z,70.09
2023-04-21T11:20:22.105Z,68.30
2023-04-21T11:21:22.264Z,63.09
2023-04-21T11:22:22.084Z,54.29
2023-04-21T11:23:22.065Z,64.59
2023-04-21T11:24:22.124Z,70.69
2023-04-21T11:25:22.033Z,68.59
2023-04-21T11:26:22.017Z,65.80
2023-04-21T11:27:22.002Z,64.50
2023-04-21T11:28:22.000Z,57.20
2023-04-21T11:29:21.982Z,53.70
2023-04-21T11:30:21.966Z,47.90
2023-04-21T11:31:21.994Z,53.40
2023-04-21T11:32:21.947Z,54.70
2023-04-21T11:33:22.037Z,56.29
2023-04-21T11:34:22.139Z,47.59
2023-04-21T11:35:21.906Z,63.70
2023-04-21T11:36:21.897Z,68.40
2023-04-21T11:37:21.901Z,65.09
2023-04-21T11:38:21.868Z,53.40
2023-04-21T11:39:22.321Z,53.90
2023-04-21T11:40:21.839Z,54.09
2023-04-21T11:41:21.836Z,54.29
2023-04-21T11:42:21.813Z,50.40
2023-04-21T11:43:21.820Z,53.20
2023-04-21T11:44:21.793Z,45.90
2023-04-21T11:45:22.642Z,52.20
2023-04-21T11:46:21.814Z,54.29
2023-04-21T11:47:21.828Z,52.20
2023-04-21T11:48:21.754Z,48.40
2023-04-21T11:49:21.729Z,50.29
2023-04-21T11:50:21.717Z,52.40
2023-04-21T11:51:22.546Z,54.70
2023-04-21T11:52:21.694Z,60.29
2023-04-21T11:53:21.701Z,59.59
2023-04-21T11:54:21.668Z,49.90
2023-04-21T11:55:21.653Z,50.79
2023-04-21T11:56:21.670Z,55.00
2023-04-21T11:57:21.627Z,56.29
2023-04-21T11:58:21.628Z,50.09
2023-04-21T11:59:23.582Z,51.29
2023-04-21T12:00:21.597Z,57.29
2023-04-21T12:01:21.621Z,47.09
2023-04-21T12:02:21.629Z,50.50
2023-04-21T12:03:21.799Z,60.29
2023-04-21T12:04:21.598Z,49.00
2023-04-21T12:05:21.589Z,54.40
2023-04-21T12:06:21.574Z,55.90
2023-04-21T12:07:21.503Z,59.70
2023-04-21T12:08:21.498Z,53.29
2023-04-21T12:09:21.559Z,62.00
2023-04-21T12:10:21.507Z,49.79
2023-04-21T12:11:21.466Z,50.29
2023-04-21T12:12:21.465Z,60.50
2023-04-21T12:13:21.427Z,56.90
2023-04-21T12:14:21.437Z,66.19
2023-04-21T12:15:21.513Z,61.40
2023-04-21T12:16:21.473Z,60.00
2023-04-21T12:17:21.399Z,63.00
2023-04-21T12:18:21.389Z,58.90
2023-04-21T12:19:21.364Z,70.80
2023-04-21T12:20:21.354Z,52.40
2023-04-21T12:21:21.335Z,65.00
2023-04-21T12:22:21.326Z,51.50
2023-04-21T12:23:21.312Z,53.90
2023-04-21T12:24:21.306Z,56.20
2023-04-21T12:25:21.320Z,51.90
2023-04-21T12:26:21.286Z,56.90
2023-04-21T12:27:21.287Z,55.40
2023-04-21T12:28:21.253Z,54.70
2023-04-21T12:29:21.240Z,52.40
2023-04-21T12:30:21.262Z,49.40
2023-04-21T12:31:21.267Z,52.59
2023-04-21T12:32:21.249Z,53.29
2023-04-21T12:33:21.307Z,53.00
2023-04-21T12:34:21.182Z,52.79
2023-04-21T12:35:21.163Z,55.09
2023-04-21T12:36:21.151Z,56.20
2023-04-21T12:37:21.144Z,48.50
2023-04-21T12:38:21.126Z,53.79
2023-04-21T12:39:21.113Z,55.09
2023-04-21T12:40:21.106Z,44.90
2023-04-21T12:41:21.113Z,53.50
2023-04-21T12:42:21.078Z,54.29
2023-04-21T12:43:21.060Z,55.20
2023-04-21T12:44:21.055Z,55.50
2023-04-21T12:45:21.040Z,56.20
2023-04-21T12:46:21.150Z,56.79
2023-04-21T12:47:21.018Z,56.20
2023-04-21T12:48:21.000Z,52.50
2023-04-21T12:49:20.980Z,53.50
2023-04-21T12:50:20.975Z,55.29
2023-04-21T12:51:20.976Z,55.79
2023-04-21T12:52:20.963Z,45.40
2023-04-21T12:53:20.946Z,53.09
2023-04-21T12:54:20.925Z,51.79
2023-04-21T12:55:20.910Z,53.90
2023-04-21T12:56:20.906Z,52.79
2023-04-21T12:57:20.913Z,51.50
2023-04-21T12:58:20.882Z,51.40
2023-04-21T12:59:20.858Z,53.50
2023-04-21T13:00:20.854Z,52.00
2023-04-21T13:01:20.958Z,55.00